sensor_id;sensor_type;location;lat;lon;timestamp;pressure;altitude;pressure_sealevel;temperature;humidity
77086;BME280;66014;53.134;18.006;2023-03-14T00:00:46;98925.23;;;11.67;74.24
77086;BME280;66014;53.134;18.006;2023-03-14T00:03:20;98928.91;;;11.69;74.11
77086;BME280;66014;53.134;18.006;2023-03-14T00:08:48;98924.76;;;11.69;74.24
77086;BME280;66014;53.134;18.006;2023-03-14T00:11:21;98928.58;;;11.69;73.80
77086;BME280;66014;53.134;18.006;2023-03-14T00:13:49;98936.73;;;11.69;73.97
77086;BME280;66014;53.134;18.006;2023-03-14T00:16:17;98936.41;;;11.69;73.88
77086;BME280;66014;53.134;18.006;2023-03-14T00:18:44;98939.90;;;11.68;73.75
77086;BME280;66014;53.134;18.006;2023-03-14T00:21:11;98940.20;;;11.67;73.74
77086;BME280;66014;53.134;18.006;2023-03-14T00:23:40;98938.75;;;11.66;73.56
77086;BME280;66014;53.134;18.006;2023-03-14T00:26:12;98942.63;;;11.66;73.35
77086;BME280;66014;53.134;18.006;2023-03-14T00:28:41;98941.91;;;11.67;73.33
77086;BME280;66014;53.134;18.006;2023-03-14T00:31:09;98931.81;;;11.68;73.40
77086;BME280;66014;53.134;18.006;2023-03-14T00:33:36;98936.95;;;11.67;73.62
77086;BME280;66014;53.134;18.006;2023-03-14T00:36:09;98939.77;;;11.66;73.21
77086;BME280;66014;53.134;18.006;2023-03-14T00:38:36;98939.06;;;11.66;72.85
77086;BME280;66014;53.134;18.006;2023-03-14T00:41:23;98936.28;;;11.68;72.85
77086;BME280;66014;53.134;18.006;2023-03-14T00:44:06;98937.61;;;11.70;72.46
77086;BME280;66014;53.134;18.006;2023-03-14T00:46:33;98934.42;;;11.70;72.90
77086;BME280;66014;53.134;18.006;2023-03-14T00:49:00;98923.49;;;11.68;72.76
77086;BME280;66014;53.134;18.006;2023-03-14T00:51:26;98921.09;;;11.66;72.99
77086;BME280;66014;53.134;18.006;2023-03-14T00:53:55;98911.48;;;11.64;72.99
77086;BME280;66014;53.134;18.006;2023-03-14T00:56:36;98912.97;;;11.64;73.30
77086;BME280;66014;53.134;18.006;2023-03-14T00:59:03;98904.18;;;11.62;73.03
77086;BME280;66014;53.134;18.006;2023-03-14T01:01:33;98900.52;;;11.60;72.73
77086;BME280;66014;53.134;18.006;2023-03-14T01:04:10;98898.38;;;11.61;72.60
77086;BME280;66014;53.134;18.006;2023-03-14T01:06:56;98888.81;;;11.61;72.41
77086;BME280;66014;53.134;18.006;2023-03-14T01:09:22;98881.17;;;11.63;72.56
77086;BME280;66014;53.134;18.006;2023-03-14T01:11:49;98883.88;;;11.62;72.17
77086;BME280;66014;53.134;18.006;2023-03-14T01:14:16;98884.44;;;11.61;72.13
77086;BME280;66014;53.134;18.006;2023-03-14T01:16:42;98885.52;;;11.60;72.32
77086;BME280;66014;53.134;18.006;2023-03-14T01:19:09;98881.84;;;11.57;72.38
77086;BME280;66014;53.134;18.006;2023-03-14T01:21:38;98878.61;;;11.53;72.48
77086;BME280;66014;53.134;18.006;2023-03-14T01:24:05;98872.31;;;11.52;72.19
77086;BME280;66014;53.134;18.006;2023-03-14T01:26:34;98872.67;;;11.50;72.19
77086;BME280;66014;53.134;18.006;2023-03-14T01:29:02;98875.63;;;11.50;72.30
77086;BME280;66014;53.134;18.006;2023-03-14T01:31:28;98878.61;;;11.47;72.35
77086;BME280;66014;53.134;18.006;2023-03-14T01:33:55;98868.51;;;11.46;72.29
77086;BME280;66014;53.134;18.006;2023-03-14T01:36:22;98863.39;;;11.46;72.32
77086;BME280;66014;53.134;18.006;2023-03-14T01:38:48;98857.73;;;11.46;72.19
77086;BME280;66014;53.134;18.006;2023-03-14T01:41:19;98854.39;;;11.44;72.45
77086;BME280;66014;53.134;18.006;2023-03-14T01:43:47;98857.44;;;11.43;72.56
77086;BME280;66014;53.134;18.006;2023-03-14T01:52:03;98847.06;;;11.38;72.78
77086;BME280;66014;53.134;18.006;2023-03-14T01:54:37;98838.67;;;11.39;72.93
77086;BME280;66014;53.134;18.006;2023-03-14T01:57:09;98836.95;;;11.40;73.03
77086;BME280;66014;53.134;18.006;2023-03-14T01:59:46;98830.84;;;11.40;73.02
77086;BME280;66014;53.134;18.006;2023-03-14T02:02:15;98823.48;;;11.40;72.95
77086;BME280;66014;53.134;18.006;2023-03-14T02:04:42;98821.25;;;11.40;73.08
77086;BME280;66014;53.134;18.006;2023-03-14T02:07:16;98810.59;;;11.40;73.11
77086;BME280;66014;53.134;18.006;2023-03-14T02:09:44;98803.20;;;11.41;73.22
77086;BME280;66014;53.134;18.006;2023-03-14T02:12:12;98809.54;;;11.40;73.25
77086;BME280;66014;53.134;18.006;2023-03-14T02:14:40;98816.42;;;11.40;73.19
77086;BME280;66014;53.134;18.006;2023-03-14T02:17:14;98822.86;;;11.39;73.53
77086;BME280;66014;53.134;18.006;2023-03-14T02:20:13;98814.95;;;11.36;73.52
77086;BME280;66014;53.134;18.006;2023-03-14T02:22:44;98815.66;;;11.35;73.56
77086;BME280;66014;53.134;18.006;2023-03-14T02:25:41;98816.98;;;11.33;73.77
77086;BME280;66014;53.134;18.006;2023-03-14T02:28:11;98820.52;;;11.31;73.83
77086;BME280;66014;53.134;18.006;2023-03-14T02:30:39;98817.66;;;11.30;73.83
77086;BME280;66014;53.134;18.006;2023-03-14T02:33:12;98819.05;;;11.30;74.10
77086;BME280;66014;53.134;18.006;2023-03-14T02:35:59;98821.80;;;11.31;74.23
77086;BME280;66014;53.134;18.006;2023-03-14T02:40:58;98822.46;;;11.36;74.49
77086;BME280;66014;53.134;18.006;2023-03-14T02:43:25;98814.48;;;11.38;74.48
77086;BME280;66014;53.134;18.006;2023-03-14T02:45:52;98808.72;;;11.42;74.56
77086;BME280;66014;53.134;18.006;2023-03-14T02:48:30;98810.45;;;11.45;74.57
77086;BME280;66014;53.134;18.006;2023-03-14T02:51:01;98807.33;;;11.48;74.43
77086;BME280;66014;53.134;18.006;2023-03-14T02:53:33;98814.01;;;11.49;74.53
77086;BME280;66014;53.134;18.006;2023-03-14T02:56:01;98822.11;;;11.51;74.59
77086;BME280;66014;53.134;18.006;2023-03-14T02:58:28;98821.66;;;11.54;74.59
77086;BME280;66014;53.134;18.006;2023-03-14T03:00:55;98818.05;;;11.58;74.68
77086;BME280;66014;53.134;18.006;2023-03-14T03:03:23;98829.70;;;11.61;74.63
77086;BME280;66014;53.134;18.006;2023-03-14T03:05:51;98827.44;;;11.62;74.54
77086;BME280;66014;53.134;18.006;2023-03-14T03:08:19;98837.78;;;11.64;74.62
77086;BME280;66014;53.134;18.006;2023-03-14T03:10:46;98831.23;;;11.69;74.49
77086;BME280;66014;53.134;18.006;2023-03-14T03:13:16;98833.14;;;11.75;74.49
77086;BME280;66014;53.134;18.006;2023-03-14T03:15:43;98831.70;;;11.79;74.39
77086;BME280;66014;53.134;18.006;2023-03-14T03:18:10;98833.45;;;11.84;74.28
77086;BME280;66014;53.134;18.006;2023-03-14T03:20:38;98832.44;;;11.89;74.31
77086;BME280;66014;53.134;18.006;2023-03-14T03:23:04;98828.62;;;11.92;74.30
77086;BME280;66014;53.134;18.006;2023-03-14T03:25:33;98825.21;;;11.94;74.31
77086;BME280;66014;53.134;18.006;2023-03-14T03:28:00;98820.16;;;11.94;74.32
77086;BME280;66014;53.134;18.006;2023-03-14T03:30:27;98812.08;;;11.94;74.42
77086;BME280;66014;53.134;18.006;2023-03-14T03:32:54;98806.00;;;11.92;74.44
77086;BME280;66014;53.134;18.006;2023-03-14T03:35:21;98804.66;;;11.91;74.54
77086;BME280;66014;53.134;18.006;2023-03-14T03:37:48;98810.14;;;11.90;74.69
77086;BME280;66014;53.134;18.006;2023-03-14T03:40:14;98814.77;;;11.88;74.69
77086;BME280;66014;53.134;18.006;2023-03-14T03:42:44;98820.83;;;11.85;74.82
77086;BME280;66014;53.134;18.006;2023-03-14T03:45:11;98819.00;;;11.82;74.93
77086;BME280;66014;53.134;18.006;2023-03-14T03:47:37;98812.83;;;11.81;75.04
77086;BME280;66014;53.134;18.006;2023-03-14T03:50:04;98805.58;;;11.78;75.14
77086;BME280;66014;53.134;18.006;2023-03-14T03:52:31;98807.82;;;11.74;75.41
77086;BME280;66014;53.134;18.006;2023-03-14T03:59:07;98778.59;;;11.63;75.72
77086;BME280;66014;53.134;18.006;2023-03-14T04:01:47;98765.52;;;11.60;75.91
77086;BME280;66014;53.134;18.006;2023-03-14T04:04:17;98748.11;;;11.57;76.10
77086;BME280;66014;53.134;18.006;2023-03-14T04:06:44;98737.35;;;11.52;76.32
77086;BME280;66014;53.134;18.006;2023-03-14T04:09:11;98733.69;;;11.46;76.75
77086;BME280;66014;53.134;18.006;2023-03-14T04:11:50;98731.36;;;11.41;77.01
77086;BME280;66014;53.134;18.006;2023-03-14T04:15:11;98722.33;;;11.33;77.37
77086;BME280;66014;53.134;18.006;2023-03-14T04:17:56;98723.40;;;11.29;77.37
77086;BME280;66014;53.134;18.006;2023-03-14T04:20:23;98734.84;;;11.26;77.83
77086;BME280;66014;53.134;18.006;2023-03-14T04:22:49;98736.95;;;11.24;77.93
77086;BME280;66014;53.134;18.006;2023-03-14T04:25:16;98736.25;;;11.21;78.35
77086;BME280;66014;53.134;18.006;2023-03-14T04:27:46;98728.31;;;11.19;78.40
77086;BME280;66014;53.134;18.006;2023-03-14T04:30:12;98730.86;;;11.17;78.52
77086;BME280;66014;53.134;18.006;2023-03-14T04:32:39;98722.27;;;11.16;78.75
77086;BME280;66014;53.134;18.006;2023-03-14T04:35:08;98715.88;;;11.16;78.59
77086;BME280;66014;53.134;18.006;2023-03-14T04:37:37;98706.80;;;11.15;78.65
77086;BME280;66014;53.134;18.006;2023-03-14T04:40:03;98702.27;;;11.15;78.77
77086;BME280;66014;53.134;18.006;2023-03-14T04:42:32;98703.77;;;11.13;78.92
77086;BME280;66014;53.134;18.006;2023-03-14T04:44:59;98699.04;;;11.11;78.93
77086;BME280;66014;53.134;18.006;2023-03-14T04:47:35;98701.89;;;11.11;79.22
77086;BME280;66014;53.134;18.006;2023-03-14T04:50:13;98693.03;;;11.10;79.05
77086;BME280;66014;53.134;18.006;2023-03-14T04:52:40;98698.64;;;11.11;78.87
77086;BME280;66014;53.134;18.006;2023-03-14T04:55:09;98693.65;;;11.11;78.99
77086;BME280;66014;53.134;18.006;2023-03-14T04:57:36;98700.24;;;11.11;78.71
77086;BME280;66014;53.134;18.006;2023-03-14T05:00:03;98704.17;;;11.10;78.76
77086;BME280;66014;53.134;18.006;2023-03-14T05:02:40;98703.98;;;11.09;79.15
77086;BME280;66014;53.134;18.006;2023-03-14T05:05:07;98705.08;;;11.08;79.14
77086;BME280;66014;53.134;18.006;2023-03-14T05:07:40;98708.77;;;11.05;79.33
77086;BME280;66014;53.134;18.006;2023-03-14T05:10:06;98701.52;;;11.02;79.22
77086;BME280;66014;53.134;18.006;2023-03-14T05:12:33;98692.81;;;11.00;79.25
77086;BME280;66014;53.134;18.006;2023-03-14T05:15:00;98676.41;;;10.96;79.18
77086;BME280;66014;53.134;18.006;2023-03-14T05:17:26;98672.91;;;10.92;79.21
77086;BME280;66014;53.134;18.006;2023-03-14T05:19:53;98676.48;;;10.88;79.14
77086;BME280;66014;53.134;18.006;2023-03-14T05:22:19;98689.71;;;10.85;79.13
77086;BME280;66014;53.134;18.006;2023-03-14T05:24:46;98691.64;;;10.82;78.96
77086;BME280;66014;53.134;18.006;2023-03-14T05:27:13;98702.69;;;10.79;78.75
77086;BME280;66014;53.134;18.006;2023-03-14T05:29:39;98717.08;;;10.78;78.58
77086;BME280;66014;53.134;18.006;2023-03-14T05:32:06;98711.98;;;10.76;78.48
77086;BME280;66014;53.134;18.006;2023-03-14T05:34:32;98701.86;;;10.74;78.40
77086;BME280;66014;53.134;18.006;2023-03-14T05:36:59;98693.05;;;10.72;78.08
77086;BME280;66014;53.134;18.006;2023-03-14T05:39:26;98704.63;;;10.72;77.69
77086;BME280;66014;53.134;18.006;2023-03-14T05:41:52;98706.05;;;10.73;77.41
77086;BME280;66014;53.134;18.006;2023-03-14T05:44:22;98691.72;;;10.74;77.12
77086;BME280;66014;53.134;18.006;2023-03-14T05:46:49;98695.67;;;10.75;76.94
77086;BME280;66014;53.134;18.006;2023-03-14T05:49:15;98697.30;;;10.75;76.90
77086;BME280;66014;53.134;18.006;2023-03-14T05:51:42;98692.39;;;10.74;76.70
77086;BME280;66014;53.134;18.006;2023-03-14T05:54:08;98694.26;;;10.74;76.53
77086;BME280;66014;53.134;18.006;2023-03-14T05:56:35;98708.61;;;10.75;75.88
77086;BME280;66014;53.134;18.006;2023-03-14T05:59:02;98709.22;;;10.78;75.79
77086;BME280;66014;53.134;18.006;2023-03-14T06:01:30;98704.83;;;10.81;75.26
77086;BME280;66014;53.134;18.006;2023-03-14T06:03:56;98697.73;;;10.85;74.88
77086;BME280;66014;53.134;18.006;2023-03-14T06:06:23;98693.30;;;10.84;74.51
77086;BME280;66014;53.134;18.006;2023-03-14T06:08:49;98699.13;;;10.83;74.02
77086;BME280;66014;53.134;18.006;2023-03-14T06:11:16;98695.05;;;10.84;73.91
77086;BME280;66014;53.134;18.006;2023-03-14T06:13:42;98702.34;;;10.84;73.16
77086;BME280;66014;53.134;18.006;2023-03-14T06:16:09;98709.91;;;10.84;73.22
77086;BME280;66014;53.134;18.006;2023-03-14T06:18:35;98716.70;;;10.85;73.32
77086;BME280;66014;53.134;18.006;2023-03-14T06:21:02;98711.02;;;10.86;73.27
77086;BME280;66014;53.134;18.006;2023-03-14T06:23:28;98724.99;;;10.89;72.63
77086;BME280;66014;53.134;18.006;2023-03-14T06:25:58;98726.48;;;10.94;72.81
77086;BME280;66014;53.134;18.006;2023-03-14T06:28:34;98733.83;;;10.96;72.26
77086;BME280;66014;53.134;18.006;2023-03-14T06:31:01;98729.46;;;10.98;71.94
77086;BME280;66014;53.134;18.006;2023-03-14T06:33:28;98729.80;;;10.99;71.83
77086;BME280;66014;53.134;18.006;2023-03-14T06:35:55;98726.67;;;11.01;72.19
77086;BME280;66014;53.134;18.006;2023-03-14T06:38:48;98723.76;;;11.04;71.62
77086;BME280;66014;53.134;18.006;2023-03-14T06:44:20;98719.17;;;11.11;71.82
77086;BME280;66014;53.134;18.006;2023-03-14T06:47:01;98708.64;;;11.10;71.11
77086;BME280;66014;53.134;18.006;2023-03-14T06:49:50;98707.80;;;11.09;71.37
77086;BME280;66014;53.134;18.006;2023-03-14T06:52:16;98715.93;;;11.06;71.46
77086;BME280;66014;53.134;18.006;2023-03-14T06:54:43;98712.90;;;11.04;71.58
77086;BME280;66014;53.134;18.006;2023-03-14T06:57:09;98710.36;;;11.05;71.70
77086;BME280;66014;53.134;18.006;2023-03-14T06:59:43;98707.59;;;11.07;71.87
77086;BME280;66014;53.134;18.006;2023-03-14T07:02:14;98700.51;;;11.09;71.62
77086;BME280;66014;53.134;18.006;2023-03-14T07:04:43;98708.20;;;11.12;71.46
77086;BME280;66014;53.134;18.006;2023-03-14T07:07:22;98720.05;;;11.19;71.10
77086;BME280;66014;53.134;18.006;2023-03-14T07:09:48;98715.69;;;11.29;71.31
77086;BME280;66014;53.134;18.006;2023-03-14T07:12:15;98712.06;;;11.45;70.98
77086;BME280;66014;53.134;18.006;2023-03-14T07:14:42;98710.02;;;11.71;70.55
77086;BME280;66014;53.134;18.006;2023-03-14T07:17:08;98713.71;;;11.90;69.76
77086;BME280;66014;53.134;18.006;2023-03-14T07:19:35;98712.27;;;12.13;69.55
77086;BME280;66014;53.134;18.006;2023-03-14T07:22:02;98713.09;;;12.38;68.27
77086;BME280;66014;53.134;18.006;2023-03-14T07:24:29;98709.16;;;12.62;68.20
77086;BME280;66014;53.134;18.006;2023-03-14T07:27:08;98706.95;;;12.70;67.91
77086;BME280;66014;53.134;18.006;2023-03-14T07:29:42;98707.15;;;12.75;67.35
77086;BME280;66014;53.134;18.006;2023-03-14T07:32:08;98718.39;;;12.87;66.68
77086;BME280;66014;53.134;18.006;2023-03-14T07:34:38;98710.11;;;12.90;66.17
77086;BME280;66014;53.134;18.006;2023-03-14T07:37:04;98716.02;;;12.81;67.00
77086;BME280;66014;53.134;18.006;2023-03-14T07:39:31;98721.77;;;12.69;66.44
77086;BME280;66014;53.134;18.006;2023-03-14T07:41:58;98723.23;;;12.56;66.42
77086;BME280;66014;53.134;18.006;2023-03-14T07:44:25;98718.36;;;12.48;67.38
77086;BME280;66014;53.134;18.006;2023-03-14T07:46:51;98711.27;;;12.46;67.57
77086;BME280;66014;53.134;18.006;2023-03-14T07:49:18;98716.89;;;12.44;67.35
77086;BME280;66014;53.134;18.006;2023-03-14T07:51:48;98708.39;;;12.39;67.88
77086;BME280;66014;53.134;18.006;2023-03-14T07:54:14;98711.14;;;12.37;67.84
77086;BME280;66014;53.134;18.006;2023-03-14T07:56:41;98704.34;;;12.34;67.87
77086;BME280;66014;53.134;18.006;2023-03-14T07:59:08;98708.62;;;12.32;67.95
77086;BME280;66014;53.134;18.006;2023-03-14T08:01:35;98702.63;;;12.31;67.89
77086;BME280;66014;53.134;18.006;2023-03-14T08:04:01;98700.02;;;12.33;68.07
77086;BME280;66014;53.134;18.006;2023-03-14T08:06:28;98705.52;;;12.37;67.98
77086;BME280;66014;53.134;18.006;2023-03-14T08:08:54;98703.61;;;12.37;67.95
77086;BME280;66014;53.134;18.006;2023-03-14T08:11:21;98690.09;;;12.31;67.51
77086;BME280;66014;53.134;18.006;2023-03-14T08:13:47;98686.64;;;12.27;68.06
77086;BME280;66014;53.134;18.006;2023-03-14T08:16:19;98684.21;;;12.25;68.04
77086;BME280;66014;53.134;18.006;2023-03-14T08:18:45;98681.85;;;12.22;68.03
77086;BME280;66014;53.134;18.006;2023-03-14T08:21:12;98681.09;;;12.19;68.18
77086;BME280;66014;53.134;18.006;2023-03-14T08:23:39;98674.50;;;12.15;68.41
77086;BME280;66014;53.134;18.006;2023-03-14T08:26:06;98687.29;;;12.15;68.22
77086;BME280;66014;53.134;18.006;2023-03-14T08:28:40;98681.39;;;12.18;68.38
77086;BME280;66014;53.134;18.006;2023-03-14T08:31:07;98679.34;;;12.22;67.97
77086;BME280;66014;53.134;18.006;2023-03-14T08:33:34;98679.45;;;12.25;68.18
77086;BME280;66014;53.134;18.006;2023-03-14T08:36:01;98681.71;;;12.26;67.99
77086;BME280;66014;53.134;18.006;2023-03-14T08:38:28;98685.75;;;12.30;68.37
77086;BME280;66014;53.134;18.006;2023-03-14T08:40:59;98699.27;;;12.33;67.78
77086;BME280;66014;53.134;18.006;2023-03-14T08:43:27;98711.48;;;12.34;67.88
77086;BME280;66014;53.134;18.006;2023-03-14T08:45:56;98702.52;;;12.33;67.84
77086;BME280;66014;53.134;18.006;2023-03-14T08:48:25;98703.02;;;12.29;67.76
77086;BME280;66014;53.134;18.006;2023-03-14T08:50:51;98700.70;;;12.25;67.80
77086;BME280;66014;53.134;18.006;2023-03-14T08:53:19;98707.17;;;12.22;68.03
77086;BME280;66014;53.134;18.006;2023-03-14T08:55:53;98699.66;;;12.20;67.98
77086;BME280;66014;53.134;18.006;2023-03-14T08:58:20;98716.11;;;12.16;68.11
77086;BME280;66014;53.134;18.006;2023-03-14T09:00:49;98721.88;;;12.11;68.70
77086;BME280;66014;53.134;18.006;2023-03-14T09:03:16;98723.93;;;12.08;68.78
77086;BME280;66014;53.134;18.006;2023-03-14T09:05:43;98724.79;;;12.08;68.75
77086;BME280;66014;53.134;18.006;2023-03-14T09:08:09;98727.67;;;12.10;68.93
77086;BME280;66014;53.134;18.006;2023-03-14T09:10:36;98727.12;;;12.12;68.75
77086;BME280;66014;53.134;18.006;2023-03-14T09:13:05;98719.39;;;12.16;68.81
77086;BME280;66014;53.134;18.006;2023-03-14T09:15:32;98713.61;;;12.26;68.59
77086;BME280;66014;53.134;18.006;2023-03-14T09:17:59;98722.06;;;12.39;68.43
77086;BME280;66014;53.134;18.006;2023-03-14T09:20:26;98711.02;;;12.60;68.04
77086;BME280;66014;53.134;18.006;2023-03-14T09:22:53;98703.09;;;12.83;67.60
77086;BME280;66014;53.134;18.006;2023-03-14T09:25:19;98697.42;;;13.00;67.09
77086;BME280;66014;53.134;18.006;2023-03-14T09:27:46;98698.48;;;13.29;66.25
77086;BME280;66014;53.134;18.006;2023-03-14T09:30:12;98693.35;;;13.56;65.49
77086;BME280;66014;53.134;18.006;2023-03-14T09:32:39;98690.73;;;13.78;65.17
77086;BME280;66014;53.134;18.006;2023-03-14T09:35:06;98697.04;;;14.01;64.93
77086;BME280;66014;53.134;18.006;2023-03-14T09:37:32;98695.61;;;14.14;64.03
77086;BME280;66014;53.134;18.006;2023-03-14T09:39:59;98702.78;;;14.14;63.14
77086;BME280;66014;53.134;18.006;2023-03-14T09:42:26;98706.88;;;14.04;63.00
77086;BME280;66014;53.134;18.006;2023-03-14T09:45:01;98716.68;;;14.05;63.84
77086;BME280;66014;53.134;18.006;2023-03-14T09:47:41;98714.74;;;14.04;63.47
77086;BME280;66014;53.134;18.006;2023-03-14T09:50:13;98700.10;;;14.09;63.51
77086;BME280;66014;53.134;18.006;2023-03-14T09:52:48;98706.19;;;14.19;62.97
77086;BME280;66014;53.134;18.006;2023-03-14T09:55:19;98708.89;;;14.24;62.25
77086;BME280;66014;53.134;18.006;2023-03-14T09:57:50;98710.89;;;14.22;62.23
77086;BME280;66014;53.134;18.006;2023-03-14T10:00:20;98708.07;;;14.17;62.13
77086;BME280;66014;53.134;18.006;2023-03-14T10:02:58;98703.84;;;14.13;62.18
77086;BME280;66014;53.134;18.006;2023-03-14T10:05:28;98705.62;;;13.95;61.99
77086;BME280;66014;53.134;18.006;2023-03-14T10:07:55;98711.27;;;13.79;62.35
77086;BME280;66014;53.134;18.006;2023-03-14T10:10:24;98701.95;;;13.69;62.97
77086;BME280;66014;53.134;18.006;2023-03-14T10:12:59;98705.07;;;13.64;63.73
77086;BME280;66014;53.134;18.006;2023-03-14T10:15:34;98701.48;;;13.56;63.36
77086;BME280;66014;53.134;18.006;2023-03-14T10:18:02;98696.43;;;13.51;63.54
77086;BME280;66014;53.134;18.006;2023-03-14T10:20:42;98693.93;;;13.49;63.45
77086;BME280;66014;53.134;18.006;2023-03-14T10:25:41;98710.41;;;13.49;63.47
77086;BME280;66014;53.134;18.006;2023-03-14T10:28:23;98710.19;;;13.50;63.21
77086;BME280;66014;53.134;18.006;2023-03-14T10:30:50;98705.86;;;13.53;63.70
77086;BME280;66014;53.134;18.006;2023-03-14T10:33:32;98700.48;;;13.55;63.20
77086;BME280;66014;53.134;18.006;2023-03-14T10:36:05;98695.46;;;13.58;62.86
77086;BME280;66014;53.134;18.006;2023-03-14T10:38:35;98697.12;;;13.61;62.58
77086;BME280;66014;53.134;18.006;2023-03-14T10:41:19;98702.11;;;13.65;62.60
77086;BME280;66014;53.134;18.006;2023-03-14T10:43:51;98694.43;;;13.70;62.04
77086;BME280;66014;53.134;18.006;2023-03-14T10:46:20;98689.35;;;13.73;62.42
77086;BME280;66014;53.134;18.006;2023-03-14T10:48:49;98695.65;;;13.77;61.88
77086;BME280;66014;53.134;18.006;2023-03-14T10:53:46;98688.23;;;13.88;62.33
77086;BME280;66014;53.134;18.006;2023-03-14T10:56:19;98692.70;;;13.90;61.99
77086;BME280;66014;53.134;18.006;2023-03-14T10:58:48;98695.67;;;13.84;62.16
77086;BME280;66014;53.134;18.006;2023-03-14T11:01:40;98699.23;;;13.79;62.35
77086;BME280;66014;53.134;18.006;2023-03-14T11:06:56;98708.35;;;13.77;62.63
77086;BME280;66014;53.134;18.006;2023-03-14T11:09:50;98704.08;;;13.74;62.48
77086;BME280;66014;53.134;18.006;2023-03-14T11:15:24;98700.88;;;13.65;62.43
77086;BME280;66014;53.134;18.006;2023-03-14T11:23:23;98699.84;;;13.57;62.82
77086;BME280;66014;53.134;18.006;2023-03-14T11:25:59;98701.76;;;13.63;62.56
77086;BME280;66014;53.134;18.006;2023-03-14T11:28:48;98706.27;;;13.75;62.17
77086;BME280;66014;53.134;18.006;2023-03-14T11:31:29;98708.34;;;13.84;62.18
77086;BME280;66014;53.134;18.006;2023-03-14T11:34:17;98710.57;;;13.97;61.44
77086;BME280;66014;53.134;18.006;2023-03-14T11:36:55;98713.71;;;14.07;61.23
77086;BME280;66014;53.134;18.006;2023-03-14T11:39:29;98713.27;;;14.14;60.95
77086;BME280;66014;53.134;18.006;2023-03-14T11:42:04;98711.37;;;14.16;60.88
77086;BME280;66014;53.134;18.006;2023-03-14T11:44:35;98710.54;;;14.13;60.72
77086;BME280;66014;53.134;18.006;2023-03-14T11:47:08;98711.67;;;14.11;60.91
77086;BME280;66014;53.134;18.006;2023-03-14T11:49:42;98713.86;;;14.15;60.68
77086;BME280;66014;53.134;18.006;2023-03-14T11:52:17;98714.20;;;14.16;60.29
77086;BME280;66014;53.134;18.006;2023-03-14T11:57:20;98716.41;;;14.09;60.50
77086;BME280;66014;53.134;18.006;2023-03-14T12:10:51;98704.25;;;13.90;61.64
77086;BME280;66014;53.134;18.006;2023-03-14T12:13:20;98703.42;;;13.85;61.41
77086;BME280;66014;53.134;18.006;2023-03-14T12:16:35;98692.41;;;13.78;61.35
77086;BME280;66014;53.134;18.006;2023-03-14T12:21:51;98680.59;;;13.60;61.78
77086;BME280;66014;53.134;18.006;2023-03-14T12:24:27;98679.98;;;13.52;62.01
77086;BME280;66014;53.134;18.006;2023-03-14T12:27:02;98671.84;;;13.51;62.29
77086;BME280;66014;53.134;18.006;2023-03-14T12:29:33;98678.86;;;13.59;62.17
77086;BME280;66014;53.134;18.006;2023-03-14T12:32:22;98683.31;;;13.85;61.44
77086;BME280;66014;53.134;18.006;2023-03-14T12:34:49;98675.48;;;14.13;61.06
77086;BME280;66014;53.134;18.006;2023-03-14T12:43:02;98671.80;;;14.28;60.84
77086;BME280;66014;53.134;18.006;2023-03-14T12:48:15;98664.88;;;14.12;61.40
77086;BME280;66014;53.134;18.006;2023-03-14T12:51:03;98664.63;;;14.24;60.83
77086;BME280;66014;53.134;18.006;2023-03-14T12:59:04;98664.70;;;14.29;60.72
77086;BME280;66014;53.134;18.006;2023-03-14T13:01:35;98662.23;;;14.25;60.78
77086;BME280;66014;53.134;18.006;2023-03-14T13:04:08;98667.06;;;14.22;60.85
77086;BME280;66014;53.134;18.006;2023-03-14T13:06:56;98670.14;;;14.20;60.91
77086;BME280;66014;53.134;18.006;2023-03-14T13:12:01;98663.83;;;14.11;61.28
77086;BME280;66014;53.134;18.006;2023-03-14T13:14:31;98657.55;;;14.09;61.27
77086;BME280;66014;53.134;18.006;2023-03-14T13:17:00;98650.92;;;14.06;61.35
77086;BME280;66014;53.134;18.006;2023-03-14T13:19:30;98648.70;;;13.99;61.55
77086;BME280;66014;53.134;18.006;2023-03-14T13:22:21;98656.33;;;13.95;61.75
77086;BME280;66014;53.134;18.006;2023-03-14T13:24:48;98662.27;;;13.91;61.97
77086;BME280;66014;53.134;18.006;2023-03-14T13:27:19;98664.70;;;13.87;61.87
77086;BME280;66014;53.134;18.006;2023-03-14T13:29:50;98655.91;;;13.83;62.13
77086;BME280;66014;53.134;18.006;2023-03-14T13:32:21;98659.85;;;13.79;62.23
77086;BME280;66014;53.134;18.006;2023-03-14T13:34:48;98656.05;;;13.70;62.40
77086;BME280;66014;53.134;18.006;2023-03-14T13:37:19;98658.91;;;13.63;62.97
77086;BME280;66014;53.134;18.006;2023-03-14T13:39:56;98656.93;;;13.55;63.69
77086;BME280;66014;53.134;18.006;2023-03-14T13:42:28;98658.04;;;13.47;64.04
77086;BME280;66014;53.134;18.006;2023-03-14T13:44:56;98659.59;;;13.41;64.33
77086;BME280;66014;53.134;18.006;2023-03-14T13:47:25;98659.58;;;13.36;64.05
77086;BME280;66014;53.134;18.006;2023-03-14T13:49:53;98662.70;;;13.32;64.21
77086;BME280;66014;53.134;18.006;2023-03-14T13:52:37;98665.81;;;13.29;64.26
77086;BME280;66014;53.134;18.006;2023-03-14T13:55:14;98661.73;;;13.24;64.10
77086;BME280;66014;53.134;18.006;2023-03-14T13:57:49;98656.89;;;13.20;63.94
77086;BME280;66014;53.134;18.006;2023-03-14T14:02:48;98652.23;;;13.19;63.71
77086;BME280;66014;53.134;18.006;2023-03-14T14:05:15;98651.03;;;13.24;63.72
77086;BME280;66014;53.134;18.006;2023-03-14T14:07:43;98650.91;;;13.36;63.38
77086;BME280;66014;53.134;18.006;2023-03-14T14:10:12;98651.00;;;13.52;63.12
77086;BME280;66014;53.134;18.006;2023-03-14T14:12:47;98653.76;;;13.68;62.87
77086;BME280;66014;53.134;18.006;2023-03-14T14:15:27;98653.54;;;13.89;62.39
77086;BME280;66014;53.134;18.006;2023-03-14T14:17:58;98658.95;;;14.02;62.09